createdAt,value
2019-04-11T00:02:12.796Z,27.90
2019-04-11T00:04:40.121Z,27.90
2019-04-11T00:07:05.905Z,27.90
2019-04-11T00:09:32.576Z,27.90
2019-04-11T00:11:58.503Z,27.90
2019-04-11T00:14:27.578Z,27.90
2019-04-11T00:16:53.377Z,27.80
2019-04-11T00:19:19.226Z,27.90
2019-04-11T00:21:45.460Z,27.90
2019-04-11T00:24:12.439Z,27.90
2019-04-11T00:26:38.243Z,27.80
2019-04-11T00:29:05.843Z,27.80
2019-04-11T00:31:31.008Z,27.80
2019-04-11T00:33:58.435Z,27.90
2019-04-11T00:36:24.498Z,27.80
2019-04-11T00:38:50.943Z,27.90
2019-04-11T00:41:17.962Z,28.30
2019-04-11T00:43:46.856Z,27.80
2019-04-11T00:46:12.284Z,27.80
2019-04-11T00:48:39.329Z,27.80
2019-04-11T00:51:05.752Z,27.80
2019-04-11T00:53:31.986Z,27.70
2019-04-11T00:55:58.207Z,27.80
2019-04-11T00:58:25.564Z,27.70
2019-04-11T01:00:51.303Z,27.70
2019-04-11T01:03:17.985Z,28.20
2019-04-11T01:05:43.739Z,27.70
2019-04-11T01:08:09.966Z,27.70
2019-04-11T01:10:37.836Z,27.60
2019-04-11T01:13:05.078Z,27.60
2019-04-11T01:15:31.368Z,27.70
2019-04-11T01:17:58.010Z,27.60
2019-04-11T01:20:23.810Z,27.70
2019-04-11T01:22:50.791Z,27.70
2019-04-11T01:25:16.706Z,27.60
2019-04-11T01:27:42.651Z,27.60
2019-04-11T01:30:08.875Z,27.60
2019-04-11T01:32:35.153Z,27.60
2019-04-11T01:35:01.563Z,27.50
2019-04-11T01:37:28.086Z,27.60
2019-04-11T01:39:54.420Z,27.60
2019-04-11T01:42:20.882Z,27.60
2019-04-11T01:44:47.485Z,27.60
2019-04-11T01:47:14.915Z,27.50
2019-04-11T01:49:40.668Z,27.50
2019-04-11T01:52:06.540Z,27.60
2019-04-11T01:54:32.806Z,27.50
2019-04-11T01:56:59.034Z,27.60
2019-04-11T01:59:25.271Z,27.60
2019-04-11T02:01:52.612Z,27.50
2019-04-11T02:04:18.165Z,27.50
2019-04-11T02:06:45.879Z,27.50
2019-04-11T02:09:11.657Z,27.50
2019-04-11T02:11:38.040Z,27.50
2019-04-11T02:14:12.099Z,27.50
2019-04-11T02:16:30.911Z,27.50
2019-04-11T02:18:59.538Z,27.60
2019-04-11T02:21:25.371Z,27.50
2019-04-11T02:23:51.651Z,27.50
2019-04-11T02:26:18.876Z,27.50
2019-04-11T02:28:44.674Z,27.50
2019-04-11T02:31:12.279Z,27.50
2019-04-11T02:33:38.784Z,27.50
2019-04-11T02:36:05.215Z,27.50
2019-04-11T02:38:30.577Z,27.40
2019-04-11T02:40:57.813Z,27.50
2019-04-11T02:43:25.182Z,27.40
2019-04-11T02:45:59.996Z,27.40
2019-04-11T02:48:16.277Z,27.40
2019-04-11T02:50:43.255Z,27.40
2019-04-11T02:53:09.491Z,27.40
2019-04-11T02:55:35.817Z,27.30
2019-04-11T02:58:03.242Z,27.40
2019-04-11T03:00:29.175Z,27.40
2019-04-11T03:02:56.771Z,27.40
2019-04-11T03:05:22.224Z,27.90
2019-04-11T03:07:49.817Z,27.30
2019-04-11T03:10:16.354Z,27.40
2019-04-11T03:12:43.331Z,27.40
2019-04-11T03:15:25.643Z,27.30
2019-04-11T03:17:40.326Z,27.30
2019-04-11T03:20:13.037Z,27.30
2019-04-11T03:22:27.083Z,27.30
2019-04-11T03:24:55.338Z,27.30
2019-04-11T03:27:22.192Z,27.30
2019-04-11T03:29:46.737Z,27.40
2019-04-11T03:33:08.031Z,27.30
2019-04-11T03:37:27.295Z,27.30
2019-04-11T03:39:50.776Z,27.30
2019-04-11T03:42:15.904Z,27.30
2019-04-11T03:44:31.435Z,27.30
2019-04-11T03:47:08.358Z,27.30
2019-04-11T03:49:30.561Z,27.30
2019-04-11T03:51:45.991Z,27.30
2019-04-11T03:54:11.580Z,27.30
2019-04-11T03:56:38.899Z,27.20
2019-04-11T03:59:04.161Z,27.20
2019-04-11T04:01:31.813Z,27.30
2019-04-11T04:03:58.182Z,27.20
2019-04-11T04:06:23.412Z,27.20
2019-04-11T04:08:50.842Z,27.20
2019-04-11T04:11:16.813Z,27.20
2019-04-11T04:13:42.831Z,27.20
2019-04-11T04:16:18.617Z,27.20
2019-04-11T04:18:36.268Z,27.20
2019-04-11T04:21:02.433Z,27.30
2019-04-11T04:23:29.465Z,27.10
2019-04-11T04:25:55.291Z,27.20
2019-04-11T04:28:21.884Z,27.20
2019-04-11T04:30:49.210Z,27.20
2019-04-11T04:33:14.467Z,27.10
2019-04-11T04:35:42.070Z,27.10
2019-04-11T04:38:07.435Z,27.20
2019-04-11T04:40:49.827Z,27.20
2019-04-11T04:43:01.192Z,27.10
2019-04-11T04:45:27.720Z,27.10
2019-04-11T04:48:00.461Z,27.20
2019-04-11T04:50:20.069Z,27.20
2019-04-11T04:52:45.770Z,27.10
2019-04-11T04:55:12.960Z,27.10
2019-04-11T04:57:40.364Z,27.10
2019-04-11T05:00:06.954Z,27.10
2019-04-11T05:02:32.704Z,27.10
2019-04-11T05:04:58.738Z,27.10
2019-04-11T05:07:26.496Z,27.10
2019-04-11T05:09:50.963Z,27.00
2019-04-11T05:12:18.407Z,27.10
2019-04-11T05:14:45.473Z,27.10
2019-04-11T05:17:10.742Z,27.10
2019-04-11T05:19:36.696Z,27.00
2019-04-11T05:22:03.181Z,27.10
2019-04-11T05:24:30.540Z,27.10
2019-04-11T05:26:57.856Z,27.10
2019-04-11T05:29:23.227Z,27.00
2019-04-11T05:31:49.466Z,27.00
2019-04-11T05:34:16.078Z,27.00
2019-04-11T05:36:42.875Z,27.00
2019-04-11T05:39:08.815Z,27.00
2019-04-11T05:41:35.241Z,26.90
2019-04-11T05:44:03.466Z,27.00
2019-04-11T05:46:35.244Z,26.90
2019-04-11T05:48:57.842Z,26.90
2019-04-11T05:51:23.511Z,26.90
2019-04-11T05:53:50.088Z,26.90
2019-04-11T05:56:16.799Z,26.90
2019-04-11T05:58:44.348Z,26.90
2019-04-11T06:01:10.983Z,27.00
2019-04-11T06:03:34.337Z,26.90
2019-04-11T06:06:01.890Z,26.90
2019-04-11T06:08:29.952Z,27.00
2019-04-11T06:10:54.693Z,27.00
2019-04-11T06:13:20.552Z,27.00
2019-04-11T06:15:47.236Z,26.90
2019-04-11T06:18:25.249Z,27.00
2019-04-11T06:20:39.710Z,27.00
2019-04-11T06:23:06.582Z,27.00
2019-04-11T06:25:35.186Z,27.30
2019-04-11T06:27:59.961Z,27.00
2019-04-11T06:30:26.380Z,27.00
2019-04-11T06:32:52.142Z,27.00
2019-04-11T06:35:20.015Z,27.00
2019-04-11T06:37:46.468Z,27.00
2019-04-11T06:40:13.122Z,27.00
2019-04-11T06:42:39.539Z,27.10
2019-04-11T06:45:06.434Z,27.00
2019-04-11T06:47:32.656Z,27.00
2019-04-11T06:49:58.672Z,27.10
2019-04-11T06:52:25.043Z,27.00
2019-04-11T06:54:53.896Z,27.10
2019-04-11T06:57:19.352Z,27.00
2019-04-11T06:59:45.572Z,27.00
2019-04-11T07:02:18.111Z,27.10
2019-04-11T07:04:38.073Z,27.00
2019-04-11T07:07:04.914Z,27.00
2019-04-11T07:09:31.334Z,27.10
2019-04-11T07:11:59.194Z,27.10
2019-04-11T07:14:24.758Z,27.00
2019-04-11T07:16:59.623Z,27.10
2019-04-11T07:19:17.724Z,27.00
2019-04-11T07:21:44.719Z,27.10
2019-04-11T07:24:11.833Z,27.10
2019-04-11T07:26:38.209Z,27.10
2019-04-11T07:29:04.640Z,27.10
2019-04-11T07:31:31.970Z,27.10
2019-04-11T07:33:59.140Z,27.10
2019-04-11T07:36:24.380Z,27.10
2019-04-11T07:38:52.295Z,27.10
2019-04-11T07:41:17.472Z,27.20
2019-04-11T07:43:43.839Z,27.20
2019-04-11T07:46:10.067Z,27.20
2019-04-11T07:48:36.534Z,27.20
2019-04-11T07:51:03.204Z,27.20
2019-04-11T07:53:30.479Z,27.20
2019-04-11T07:55:55.810Z,27.20
2019-04-11T07:58:22.074Z,27.20
2019-04-11T08:00:51.366Z,27.20
2019-04-11T08:03:15.137Z,27.20
2019-04-11T08:05:41.565Z,27.20
2019-04-11T08:08:09.411Z,27.20
2019-04-11T08:10:35.152Z,27.20
2019-04-11T08:13:01.680Z,27.30
2019-04-11T08:15:27.678Z,27.30
2019-04-11T08:17:54.309Z,27.30
2019-04-11T08:20:21.313Z,27.30
2019-04-11T08:22:47.494Z,27.30
2019-04-11T08:25:13.314Z,27.30
2019-04-11T08:27:54.076Z,27.30
2019-04-11T08:30:08.638Z,27.90
2019-04-11T08:32:36.110Z,27.30
2019-04-11T08:35:02.421Z,27.40
2019-04-11T08:37:30.279Z,27.50
2019-04-11T08:39:57.541Z,27.50
2019-04-11T08:42:23.403Z,27.60
2019-04-11T08:44:50.207Z,27.60
2019-04-11T08:47:16.261Z,27.70
2019-04-11T08:49:42.769Z,27.60
2019-04-11T08:52:08.907Z,27.60
2019-04-11T08:54:35.553Z,27.60
2019-04-11T08:57:01.964Z,27.60
2019-04-11T08:59:29.348Z,27.70
2019-04-11T09:01:54.644Z,27.70
2019-04-11T09:04:21.882Z,27.80
2019-04-11T09:06:47.487Z,27.80
2019-04-11T09:09:13.719Z,27.80
2019-04-11T09:11:41.119Z,27.80
2019-04-11T09:14:06.810Z,27.80
2019-04-11T09:16:33.999Z,27.80
2019-04-11T09:19:01.017Z,27.80
2019-04-11T09:21:26.527Z,27.90
2019-04-11T09:23:52.552Z,27.90
2019-04-11T09:26:20.089Z,27.90
2019-04-11T09:28:45.939Z,27.90
2019-04-11T09:31:14.035Z,27.90
2019-04-11T09:33:39.721Z,27.90
2019-04-11T09:36:05.892Z,28.00
2019-04-11T09:38:32.681Z,27.90
2019-04-11T09:40:58.714Z,28.00
2019-04-11T09:43:24.427Z,28.00
2019-04-11T09:45:51.324Z,28.00
2019-04-11T09:48:19.426Z,28.00
2019-04-11T09:50:44.743Z,28.00
2019-04-11T09:53:10.108Z,28.10
2019-04-11T09:55:37.434Z,28.10
2019-04-11T09:58:02.951Z,28.10
2019-04-11T10:00:30.339Z,28.20
2019-04-11T10:02:56.289Z,28.10
2019-04-11T10:05:22.370Z,28.10
2019-04-11T10:07:48.559Z,28.10
2019-04-11T10:10:15.003Z,28.20
2019-04-11T10:12:42.533Z,28.10
2019-04-11T10:15:09.196Z,28.20
2019-04-11T10:17:34.314Z,28.20
2019-04-11T10:20:00.512Z,28.20
2019-04-11T10:22:27.117Z,28.30
2019-04-11T10:24:54.734Z,28.20
2019-04-11T10:27:20.507Z,28.30
2019-04-11T10:29:46.430Z,28.30
2019-04-11T10:32:13.483Z,28.30
2019-04-11T10:34:41.695Z,28.30
2019-04-11T10:37:07.828Z,28.40
2019-04-11T10:39:35.411Z,28.30
2019-04-11T10:42:00.648Z,28.30
2019-04-11T10:44:32.006Z,28.40
2019-04-11T10:46:59.772Z,28.40
2019-04-11T10:49:26.192Z,28.30
2019-04-11T10:51:51.499Z,28.30
2019-04-11T10:54:17.916Z,28.30
2019-04-11T10:56:44.230Z,28.40
2019-04-11T10:59:10.647Z,28.30
2019-04-11T11:01:37.041Z,28.30
2019-04-11T11:04:03.477Z,28.40
2019-04-11T11:06:29.696Z,28.40
2019-04-11T11:08:56.125Z,28.30
2019-04-11T11:11:23.986Z,28.80
2019-04-11T11:13:50.085Z,28.30
2019-04-11T11:16:15.938Z,28.40
2019-04-11T11:19:15.342Z,28.40
2019-04-11T11:21:09.369Z,28.40
2019-04-11T11:23:37.191Z,28.40
2019-04-11T11:26:02.816Z,28.40
2019-04-11T11:28:28.799Z,28.40
2019-04-11T11:30:56.298Z,28.40
2019-04-11T11:33:22.378Z,28.40
2019-04-11T11:35:47.909Z,28.40
2019-04-11T11:38:14.411Z,28.40
2019-04-11T11:40:42.408Z,28.40
2019-04-11T11:43:07.064Z,28.40
2019-04-11T11:45:33.434Z,28.50
2019-04-11T11:47:59.979Z,28.50
2019-04-11T11:50:26.763Z,28.50
2019-04-11T11:52:53.220Z,28.50
2019-04-11T11:55:21.250Z,28.50
2019-04-11T11:57:45.433Z,28.50
2019-04-11T12:00:12.695Z,28.50
2019-04-11T12:02:39.101Z,28.50
2019-04-11T12:05:12.407Z,28.50
2019-04-11T12:07:36.099Z,28.50
2019-04-11T12:09:58.594Z,28.50
2019-04-11T12:12:25.057Z,28.50
2019-04-11T12:14:51.707Z,28.40
2019-04-11T12:17:18.592Z,28.50
2019-04-11T12:19:52.308Z,28.50
2019-04-11T12:22:10.996Z,28.50
2019-04-11T12:24:38.580Z,28.60
2019-04-11T12:27:04.502Z,28.50
2019-04-11T12:29:30.554Z,28.50
2019-04-11T12:31:57.667Z,28.50
2019-04-11T12:34:24.070Z,29.00
2019-04-11T12:36:51.003Z,28.50
2019-04-11T12:39:16.234Z,28.50
2019-04-11T12:41:42.666Z,28.50
2019-04-11T12:44:09.058Z,28.60
2019-04-11T12:46:36.923Z,28.50
2019-04-11T12:49:03.329Z,28.50
2019-04-11T12:51:29.619Z,28.50
2019-04-11T12:53:55.821Z,28.50
2019-04-11T12:56:22.071Z,28.50
2019-04-11T12:58:48.475Z,28.60
2019-04-11T13:01:14.956Z,28.60
2019-04-11T13:03:41.353Z,28.60
2019-04-11T13:06:07.820Z,28.60
2019-04-11T13:08:34.226Z,28.60
2019-04-11T13:11:00.901Z,28.60
2019-04-11T13:13:27.326Z,28.50
2019-04-11T13:15:54.666Z,28.60
2019-04-11T13:18:20.168Z,28.50
2019-04-11T13:20:48.264Z,28.50
2019-04-11T13:23:14.675Z,28.50
2019-04-11T13:25:40.877Z,28.50
2019-04-11T13:28:07.855Z,28.50
2019-04-11T13:30:34.967Z,28.50
2019-04-11T13:33:01.211Z,28.50
2019-04-11T13:35:27.472Z,28.60
2019-04-11T13:37:54.321Z,28.60
2019-04-11T13:40:20.759Z,28.60
2019-04-11T13:42:47.177Z,28.50
2019-04-11T13:45:13.584Z,28.50
2019-04-11T13:47:39.834Z,28.50
2019-04-11T13:50:16.249Z,28.50
2019-04-11T13:52:32.479Z,28.50
2019-04-11T13:54:58.743Z,28.50
2019-04-11T13:57:25.183Z,28.50
2019-04-11T13:59:51.559Z,28.50
2019-04-11T14:02:18.041Z,28.40
2019-04-11T14:04:44.300Z,28.50
2019-04-11T14:07:10.680Z,28.50
2019-04-11T14:09:37.083Z,28.50
2019-04-11T14:12:05.073Z,28.50
2019-04-11T14:14:29.738Z,28.50
2019-04-11T14:16:58.469Z,28.50
2019-04-11T14:19:24.052Z,28.50
2019-04-11T14:21:51.954Z,28.50
2019-04-11T14:24:18.400Z,28.50
2019-04-11T14:26:44.776Z,28.60
2019-04-11T14:29:11.265Z,28.60
2019-04-11T14:31:37.659Z,28.50
2019-04-11T14:34:04.083Z,28.60
2019-04-11T14:36:33.633Z,28.60
2019-04-11T14:38:56.773Z,28.60
2019-04-11T14:41:22.987Z,28.60
2019-04-11T14:43:49.244Z,28.50
2019-04-11T14:46:15.459Z,28.60
2019-04-11T14:48:41.991Z,28.60
2019-04-11T14:51:08.313Z,28.60
2019-04-11T14:53:34.524Z,28.60
2019-04-11T14:56:00.760Z,28.60
2019-04-11T14:58:28.650Z,28.60
2019-04-11T15:00:54.862Z,28.60
2019-04-11T15:03:21.100Z,28.60
2019-04-11T15:05:48.956Z,28.60
2019-04-11T15:08:17.758Z,28.60
2019-04-11T15:10:45.674Z,28.60
2019-04-11T15:13:09.882Z,28.60
2019-04-11T15:15:36.120Z,28.60
2019-04-11T15:18:02.395Z,28.60
2019-04-11T15:20:28.608Z,28.60
2019-04-11T15:22:55.030Z,28.60
2019-04-11T15:25:21.448Z,28.60
2019-04-11T15:27:47.890Z,28.50
2019-04-11T15:30:16.700Z,28.50
2019-04-11T15:32:40.759Z,28.50
2019-04-11T15:35:07.202Z,28.50
2019-04-11T15:37:33.651Z,28.50
2019-04-11T15:40:00.055Z,28.50
2019-04-11T15:42:27.173Z,28.50
2019-04-11T15:44:53.588Z,28.50
2019-04-11T15:47:19.797Z,28.50
2019-04-11T15:49:46.632Z,28.50
2019-04-11T15:52:12.620Z,28.50
2019-04-11T15:54:40.550Z,28.50
2019-04-11T15:57:06.949Z,28.50
2019-04-11T15:59:33.399Z,28.50
2019-04-11T16:02:00.989Z,29.00
2019-04-11T16:04:26.247Z,28.50
2019-04-11T16:06:52.696Z,28.50
2019-04-11T16:09:19.347Z,28.50
2019-04-11T16:11:45.973Z,28.50
2019-04-11T16:14:12.635Z,28.50
2019-04-11T16:16:39.707Z,28.50
2019-04-11T16:19:05.888Z,28.50
2019-04-11T16:21:32.320Z,28.50
2019-04-11T16:23:58.992Z,28.50
2019-04-11T16:26:25.329Z,28.50
2019-04-11T16:28:51.576Z,28.50
2019-04-11T16:31:17.848Z,28.50
2019-04-11T16:33:46.196Z,28.40
2019-04-11T16:36:10.696Z,28.50
2019-04-11T16:38:37.111Z,28.50
2019-04-11T16:41:03.322Z,28.40
2019-04-11T16:43:32.010Z,28.40
2019-04-11T16:45:56.019Z,28.30
2019-04-11T16:48:25.301Z,28.30
2019-04-11T16:50:49.489Z,28.50
2019-04-11T16:53:15.956Z,28.40
2019-04-11T16:55:43.458Z,28.40
2019-04-11T16:58:08.833Z,28.50
2019-04-11T17:00:35.208Z,28.50
2019-04-11T17:03:01.446Z,28.50
2019-04-11T17:05:27.711Z,28.50
2019-04-11T17:07:56.146Z,28.50
2019-04-11T17:10:20.576Z,28.40
2019-04-11T17:12:46.794Z,28.30
2019-04-11T17:15:13.241Z,28.20
2019-04-11T17:17:39.628Z,28.00
2019-04-11T17:20:06.426Z,28.00
2019-04-11T17:22:32.323Z,28.00
2019-04-11T17:24:58.974Z,28.00
2019-04-11T17:27:25.369Z,28.00
2019-04-11T17:29:54.613Z,27.90
2019-04-11T17:32:18.047Z,27.90
2019-04-11T17:34:44.248Z,27.90
2019-04-11T17:37:10.492Z,27.80
2019-04-11T17:39:38.399Z,27.80
2019-04-11T17:42:04.814Z,27.70
2019-04-11T17:44:31.242Z,27.70
2019-04-11T17:46:57.895Z,27.70
2019-04-11T17:49:24.306Z,27.60
2019-04-11T17:51:56.233Z,27.50
2019-04-11T17:54:18.031Z,27.50
2019-04-11T17:56:44.428Z,27.50
2019-04-11T17:59:12.165Z,27.50
2019-04-11T18:01:38.100Z,27.40
2019-04-11T18:04:03.751Z,27.40
2019-04-11T18:06:30.146Z,27.30
2019-04-11T18:08:56.628Z,27.30
2019-04-11T18:11:25.650Z,27.30
2019-04-11T18:13:49.456Z,27.30
2019-04-11T18:16:17.331Z,27.20
2019-04-11T18:18:43.551Z,27.20
2019-04-11T18:21:09.768Z,27.20
2019-04-11T18:23:37.640Z,27.20
2019-04-11T18:26:03.886Z,27.20
2019-04-11T18:28:30.284Z,27.20
2019-04-11T18:30:56.535Z,27.20
2019-04-11T18:33:22.820Z,27.20
2019-04-11T18:35:49.183Z,27.20
2019-04-11T18:38:15.866Z,27.20
2019-04-11T18:40:42.297Z,27.10
2019-04-11T18:43:08.735Z,27.10
2019-04-11T18:45:35.115Z,27.10
2019-04-11T18:48:01.398Z,27.00
2019-04-11T18:50:28.918Z,27.00
2019-04-11T18:52:54.239Z,27.00
2019-04-11T18:55:20.468Z,27.00
2019-04-11T18:57:46.900Z,27.00
2019-04-11T19:00:14.540Z,27.00
2019-04-11T19:02:41.021Z,27.00
2019-04-11T19:05:07.228Z,27.00
2019-04-11T19:07:33.456Z,26.90
2019-04-11T19:09:59.675Z,26.90
2019-04-11T19:12:25.931Z,26.90
2019-04-11T19:14:52.336Z,26.90
2019-04-11T19:17:18.568Z,26.80
2019-04-11T19:19:48.599Z,26.80
2019-04-11T19:22:11.267Z,26.90
2019-04-11T19:24:41.515Z,26.80
2019-04-11T19:27:04.079Z,26.80
2019-04-11T19:29:30.327Z,26.80
2019-04-11T19:31:56.542Z,26.70
2019-04-11T19:34:22.790Z,26.80
2019-04-11T19:36:49.203Z,26.70
2019-04-11T19:39:15.456Z,26.70
2019-04-11T19:41:41.663Z,26.70
2019-04-11T19:44:08.097Z,26.70
2019-04-11T19:46:34.346Z,26.70
2019-04-11T19:49:00.563Z,26.70
2019-04-11T19:51:28.937Z,26.60
2019-04-11T19:53:53.661Z,26.60
2019-04-11T19:56:20.067Z,26.60
2019-04-11T19:58:46.501Z,26.70
2019-04-11T20:01:13.542Z,26.60
2019-04-11T20:03:39.785Z,26.60
2019-04-11T20:06:06.253Z,26.60
2019-04-11T20:08:33.248Z,26.60
2019-04-11T20:11:01.911Z,26.60
2019-04-11T20:13:27.587Z,26.60
2019-04-11T20:15:53.988Z,26.50
2019-04-11T20:18:22.593Z,26.50
2019-04-11T20:20:46.677Z,26.50
2019-04-11T20:23:13.083Z,26.50
2019-04-11T20:25:39.509Z,26.50
2019-04-11T20:28:07.386Z,26.40
2019-04-11T20:30:34.606Z,26.50
2019-04-11T20:33:02.946Z,26.50
2019-04-11T20:35:29.097Z,26.40
2019-04-11T20:37:54.333Z,26.40
2019-04-11T20:40:22.460Z,26.40
2019-04-11T20:42:47.230Z,26.40
2019-04-11T20:45:13.671Z,26.30
2019-04-11T20:47:40.073Z,26.30
2019-04-11T20:50:07.598Z,26.40
2019-04-11T20:52:32.960Z,26.30
2019-04-11T20:54:59.414Z,26.30
2019-04-11T20:57:26.313Z,26.30
2019-04-11T20:59:52.259Z,26.30
2019-04-11T21:02:18.683Z,26.30
2019-04-11T21:04:45.121Z,26.30
2019-04-11T21:07:11.552Z,26.30
2019-04-11T21:09:38.812Z,26.30
2019-04-11T21:12:07.461Z,26.30
2019-04-11T21:14:31.687Z,26.30
2019-04-11T21:16:58.088Z,26.30
2019-04-11T21:19:24.336Z,26.30
2019-04-11T21:21:53.290Z,26.30
2019-04-11T21:24:16.986Z,26.20
2019-04-11T21:26:43.249Z,26.30
2019-04-11T21:29:09.658Z,26.20
2019-04-11T21:31:36.092Z,26.20
2019-04-11T21:34:02.909Z,26.20
2019-04-11T21:36:31.480Z,26.20
2019-04-11T21:38:55.171Z,26.20
2019-04-11T21:41:21.606Z,26.00
2019-04-11T21:43:48.076Z,26.10
2019-04-11T21:46:14.501Z,26.10
2019-04-11T21:48:40.907Z,26.10
2019-04-11T21:51:11.115Z,26.10
2019-04-11T21:53:36.656Z,26.10
2019-04-11T21:56:00.048Z,26.00
2019-04-11T21:58:26.439Z,26.10
2019-04-11T22:00:54.422Z,26.00
2019-04-11T22:03:23.976Z,26.00
2019-04-11T22:05:46.143Z,26.00
2019-04-11T22:08:12.373Z,26.00
2019-04-11T22:10:40.416Z,26.00
2019-04-11T22:13:05.089Z,26.00
2019-04-11T22:15:31.297Z,26.00
2019-04-11T22:17:57.743Z,26.00
2019-04-11T22:20:24.131Z,26.00
2019-04-11T22:22:50.601Z,26.00
2019-04-11T22:25:17.033Z,26.00
2019-04-11T22:27:43.455Z,26.00
2019-04-11T22:30:09.909Z,26.00
2019-04-11T22:32:36.299Z,26.00
2019-04-11T22:35:02.520Z,26.00
2019-04-11T22:37:30.063Z,26.00
2019-04-11T22:39:55.174Z,25.90
2019-04-11T22:42:21.357Z,25.90
2019-04-11T22:44:47.659Z,25.90
2019-04-11T22:47:14.063Z,26.00
2019-04-11T22:49:40.326Z,25.90
2019-04-11T22:52:06.757Z,25.90
2019-04-11T22:54:33.416Z,25.90
2019-04-11T22:56:59.868Z,25.90
2019-04-11T22:59:26.250Z,25.90
2019-04-11T23:01:52.459Z,25.90
2019-04-11T23:04:18.762Z,25.90
2019-04-11T23:06:47.240Z,25.90
2019-04-11T23:09:11.583Z,25.90
2019-04-11T23:11:38.001Z,25.90
2019-04-11T23:14:04.236Z,25.90
2019-04-11T23:16:30.481Z,25.90
2019-04-11T23:18:56.876Z,25.90
2019-04-11T23:21:23.157Z,25.90
2019-04-11T23:23:49.795Z,25.90
2019-04-11T23:26:16.187Z,25.90
2019-04-11T23:28:46.796Z,25.90
2019-04-11T23:31:10.486Z,25.80
2019-04-11T23:33:38.152Z,25.90
2019-04-11T23:36:04.442Z,25.80
2019-04-11T23:38:30.807Z,25.90
2019-04-11T23:40:57.071Z,25.80
2019-04-11T23:43:23.499Z,25.80
2019-04-11T23:45:51.176Z,25.80
2019-04-11T23:48:16.364Z,25.80
2019-04-11T23:50:42.781Z,25.80
2019-04-11T23:53:10.653Z,25.90
2019-04-11T23:55:36.902Z,25.80
2019-04-11T23:58:03.319Z,25.90
